Terminal Aerodrome Forecast
Issued by NWS

Home | Current Version | Previous Version | Text Only | Print | Product List | Glossary On
Versions: 1 2 3 4 5 6 7 8 9 10 11 12 13 14 15 16 17 18
000
FTUS41 KBGM 281720
TAFELM
TAF
KELM 281720Z 2818/2918 28003KT P6SM SCT045
      TEMPO 2818/2821 BKN040
     FM290000 00000KT P6SM SCT250
     FM290800 00000KT 1SM BR SCT003
     FM291200 VRB03KT P6SM FEW250=

USA.gov is the U.S. government's official web portal to all federal, state and local government web resources and services.